LNG Imo — ZCDT6 — position and weather

sailwx.info

Track history (hours):
 
Tides and Currents Weather Stations Pressure Air Temp Water Temp Dewpoint Dewpoint Depression Visibility Wind Speed Wind Dir Waves Ship Positions

LNG Imo

Last reported at 2018-Apr-27 02:53 UTC. Time now 2018-Apr-27 03:03 UTC.
Position N 01°27' E 103°53'.

Length 288 m; draft 5.4 m.

Type: Ship (hazmat cat D). MMSI: 310565000.

Date/timePositionNaut miles runAvg speedWind from/ knotsBaromVisibWave heightAir tempDewpointWater temp
2018-Apr-27 02:53N 01°27' E 103°53'0 0.0
2018-Apr-27 02:23N 01°27' E 103°53'0 0.0
2018-Apr-27 01:56N 01°27' E 103°53'0 0.0
2018-Apr-27 01:23N 01°27' E 103°53'0 0.0
2018-Apr-27 00:50N 01°27' E 103°53'0 0.0
2018-Apr-27 00:30N 01°27' E 103°53'0 0.0
2018-Apr-26 23:59N 01°27' E 103°53'0 0.0
2018-Apr-26 23:26N 01°27' E 103°53'0 0.0
2018-Apr-26 22:59N 01°27' E 103°53'0 0.0
2018-Apr-26 22:11N 01°27' E 103°53'0 0.0
2018-Apr-26 21:53N 01°27' E 103°53'0 0.0
2018-Apr-26 21:29N 01°27' E 103°53'0 0.0
2018-Apr-26 20:53N 01°27' E 103°53'0 0.0
2018-Apr-26 20:29N 01°27' E 103°53'0 0.0
2018-Apr-26 19:44N 01°27' E 103°53'0 0.0
2018-Apr-26 19:28N 01°27' E 103°53'0 0.0
2018-Apr-26 18:41N 01°27' E 103°53'0 0.0
2018-Apr-26 17:47N 01°27' E 103°53'0 0.0
2018-Apr-26 17:29N 01°27' E 103°53'0 0.0
2018-Apr-26 16:56N 01°27' E 103°53'0 0.0
2018-Apr-26 15:44N 01°27' E 103°53'0 0.0
2018-Apr-26 15:26N 01°27' E 103°53'0 0.0
2018-Apr-26 14:56N 01°27' E 103°53'0 0.0
2018-Apr-26 14:23N 01°27' E 103°53'0 0.0
2018-Apr-26 13:21N 01°27' E 103°53'0 0.0
2018-Apr-26 12:51N 01°27' E 103°53'0 0.0
2018-Apr-26 11:54N 01°27' E 103°53'0 0.0
2018-Apr-26 10:29N 01°27' E 103°53'0 0.0
2018-Apr-26 09:05N 01°27' E 103°53'0 0.0
2018-Apr-26 08:56N 01°27' E 103°53'0 0.0
2018-Apr-26 08:25N 01°27' E 103°53'0 0.0
2018-Apr-26 07:59N 01°27' E 103°53'0 0.3
2018-Apr-26 07:30N 01°27' E 103°53'0 0.5
2018-Apr-26 06:59N 01°27' E 103°52'0 0.9
2018-Apr-26 06:30N 01°27' E 103°53'3 5.7
2018-Apr-26 05:59N 01°25' E 103°55'3 6.8
2018-Apr-26 05:30N 01°24' E 103°58'3 6.5
2018-Apr-26 04:59N 01°23' E 104°01'3 7.1
2018-Apr-26 04:30N 01°21' E 104°04'1 2.1
2018-Apr-26 03:59N 01°20' E 104°05'3 5.2
2018-Apr-26 03:30N 01°18' E 104°07'0 0.0
2018-Apr-26 02:52N 01°18' E 104°07'0 0.2
2018-Apr-26 02:29N 01°18' E 104°07'0 0.1
2018-Apr-26 00:37N 01°18' E 104°07'0 0.0
2018-Apr-26 00:28N 01°18' E 104°07'0 0.1
2018-Apr-25 23:58N 01°18' E 104°07'0 0.0
2018-Apr-25 23:22N 01°18' E 104°07'0 0.0
2018-Apr-25 22:55N 01°18' E 104°07'0 0.0
2018-Apr-25 22:25N 01°18' E 104°07'0 0.0
2018-Apr-25 21:53N 01°18' E 104°07'0 0.0
2018-Apr-25 21:28N 01°18' E 104°07'0 0.0
2018-Apr-25 20:59N 01°18' E 104°07'0 0.0
2018-Apr-25 20:25N 01°18' E 104°07'0 0.0
2018-Apr-25 19:52N 01°18' E 104°07'0 0.0
2018-Apr-25 19:22N 01°18' E 104°07'0 0.0
2018-Apr-25 18:52N 01°18' E 104°07'0 0.0
2018-Apr-25 18:17N 01°18' E 104°07'0 0.0
2018-Apr-25 17:55N 01°18' E 104°07'0 0.0
2018-Apr-25 17:31N 01°18' E 104°07'0 0.0
2018-Apr-25 16:34N 01°18' E 104°07'0 0.0
2018-Apr-25 16:28N 01°18' E 104°07'0 0.1
2018-Apr-25 15:52N 01°18' E 104°07'0 0.0
2018-Apr-25 15:16N 01°18' E 104°07'0 0.0
2018-Apr-25 14:57N 01°18' E 104°07'0 0.0
2018-Apr-25 14:30N 01°18' E 104°07'0 0.0
2018-Apr-25 13:55N 01°18' E 104°07'0 0.0
2018-Apr-25 13:26N 01°18' E 104°07'0 0.1
2018-Apr-25 12:54N 01°18' E 104°07'0 0.0
2018-Apr-25 12:27N 01°18' E 104°07'0 0.1
2018-Apr-25 11:54N 01°18' E 104°07'0 0.4
2018-Apr-25 11:29N 01°18' E 104°07'0 0.1
2018-Apr-25 10:48N 01°18' E 104°07'0 0.0
2018-Apr-25 10:30N 01°18' E 104°07'0 0.0
2018-Apr-25 09:57N 01°18' E 104°07'0 0.0
2018-Apr-25 09:30N 01°18' E 104°07'0 0.1
2018-Apr-25 08:51N 01°18' E 104°07'0 0.0
2018-Apr-25 08:27N 01°18' E 104°07'0 0.0
2018-Apr-25 07:54N 01°18' E 104°07'0 0.1
2018-Apr-25 06:36N 01°18' E 104°07'0 0.0
2018-Apr-25 06:24N 01°18' E 104°07'0 0.1
2018-Apr-25 05:45N 01°18' E 104°07'0 0.0
2018-Apr-25 05:30N 01°18' E 104°07'0 0.1
2018-Apr-25 04:54N 01°18' E 104°07'0 0.0
2018-Apr-25 04:30N 01°18' E 104°07'0 0.0
2018-Apr-25 03:59N 01°18' E 104°07'0 0.0
2018-Apr-25 03:24N 01°18' E 104°07'0 0.0
2018-Apr-25 02:39N 01°18' E 104°07'0 0.1
2018-Apr-25 02:30N 01°18' E 104°07'0 0.0
2018-Apr-25 01:19N 01°18' E 104°07'0 0.1
2018-Apr-25 00:53N 01°18' E 104°07'0 0.0
2018-Apr-25 00:27N 01°18' E 104°07'0 0.0
2018-Apr-24 23:57N 01°18' E 104°07'0 0.0
2018-Apr-24 23:30N 01°18' E 104°07'0 0.1
2018-Apr-24 21:33N 01°18' E 104°07'0 0.1
2018-Apr-24 21:21N 01°18' E 104°07'0 0.1
2018-Apr-24 20:54N 01°18' E 104°07'0 0.1
2018-Apr-24 20:30N 01°18' E 104°07'0 0.0
2018-Apr-24 19:51N 01°18' E 104°07'0 0.1
2018-Apr-24 19:31N 01°18' E 104°07'0 0.0
2018-Apr-24 18:57N 01°18' E 104°07'0 0.0
2018-Apr-24 18:18N 01°18' E 104°07'0 0.0
2018-Apr-24 17:33N 01°18' E 104°07'0 0.0
2018-Apr-24 17:21N 01°18' E 104°07'0 0.1
2018-Apr-24 16:51N 01°18' E 104°07'0 0.0
2018-Apr-24 15:18N 01°18' E 104°07'0 0.1
2018-Apr-24 14:39N 01°18' E 104°07'0 0.0
2018-Apr-24 14:24N 01°18' E 104°07'0 0.1
2018-Apr-24 13:33N 01°18' E 104°07'0 0.0
2018-Apr-24 13:15N 01°18' E 104°07'0 0.0
2018-Apr-24 12:57N 01°18' E 104°07'0 0.0
2018-Apr-24 12:30N 01°18' E 104°07'0 0.0
2018-Apr-24 11:57N 01°18' E 104°07'0 0.0
2018-Apr-24 11:27N 01°18' E 104°07'0 0.0
2018-Apr-24 10:57N 01°18' E 104°07'0 0.0
2018-Apr-24 10:26N 01°18' E 104°07'0 0.1
2018-Apr-24 09:54N 01°18' E 104°07'0 0.0
2018-Apr-24 09:30N 01°18' E 104°07'0 0.0
2018-Apr-24 08:48N 01°18' E 104°07'0 0.1
2018-Apr-24 08:30N 01°18' E 104°07'0 0.7
2018-Apr-24 07:59N 01°19' E 104°07'0 0.5
2018-Apr-24 07:29N 01°19' E 104°07'1 2.4
2018-Apr-24 06:57N 01°18' E 104°08'2 5.0
2018-Apr-24 06:30N 01°17' E 104°10'4 7.1
2018-Apr-24 05:59N 01°17' E 104°14'3 6.9
2018-Apr-24 05:29N 01°18' E 104°17'3 6.9
2018-Apr-24 04:59N 01°20' E 104°20'4 8.1
2018-Apr-24 04:30N 01°22' E 104°23'4 7.4
2018-Apr-24 03:59N 01°25' E 104°26'  
Track history (hours):
 
Tides and Currents Weather Stations Pressure Air Temp Water Temp Dewpoint Dewpoint Depression Visibility Wind Speed Wind Dir Waves Ship Positions

LNG Imo

Last reported at 2018-Apr-27 02:53 UTC. Time now 2018-Apr-27 03:03 UTC.
Position N 01°27' E 103°53'.

Length 288 m; draft 5.4 m.

Type: Ship (hazmat cat D). MMSI: 310565000.

Date/timePositionNaut miles runAvg speedWind from/ knotsBaromVisibWave heightAir tempDewpointWater temp
2018-Apr-27 02:53N 01°27' E 103°53'0 0.0
2018-Apr-27 02:23N 01°27' E 103°53'0 0.0
2018-Apr-27 01:56N 01°27' E 103°53'0 0.0
2018-Apr-27 01:23N 01°27' E 103°53'0 0.0
2018-Apr-27 00:50N 01°27' E 103°53'0 0.0
2018-Apr-27 00:30N 01°27' E 103°53'0 0.0
2018-Apr-26 23:59N 01°27' E 103°53'0 0.0
2018-Apr-26 23:26N 01°27' E 103°53'0 0.0
2018-Apr-26 22:59N 01°27' E 103°53'0 0.0
2018-Apr-26 22:11N 01°27' E 103°53'0 0.0
2018-Apr-26 21:53N 01°27' E 103°53'0 0.0
2018-Apr-26 21:29N 01°27' E 103°53'0 0.0
2018-Apr-26 20:53N 01°27' E 103°53'0 0.0
2018-Apr-26 20:29N 01°27' E 103°53'0 0.0
2018-Apr-26 19:44N 01°27' E 103°53'0 0.0
2018-Apr-26 19:28N 01°27' E 103°53'0 0.0
2018-Apr-26 18:41N 01°27' E 103°53'0 0.0
2018-Apr-26 17:47N 01°27' E 103°53'0 0.0
2018-Apr-26 17:29N 01°27' E 103°53'0 0.0
2018-Apr-26 16:56N 01°27' E 103°53'0 0.0
2018-Apr-26 15:44N 01°27' E 103°53'0 0.0
2018-Apr-26 15:26N 01°27' E 103°53'0 0.0
2018-Apr-26 14:56N 01°27' E 103°53'0 0.0
2018-Apr-26 14:23N 01°27' E 103°53'0 0.0
2018-Apr-26 13:21N 01°27' E 103°53'0 0.0
2018-Apr-26 12:51N 01°27' E 103°53'0 0.0
2018-Apr-26 11:54N 01°27' E 103°53'0 0.0
2018-Apr-26 10:29N 01°27' E 103°53'0 0.0
2018-Apr-26 09:05N 01°27' E 103°53'0 0.0
2018-Apr-26 08:56N 01°27' E 103°53'0 0.0
2018-Apr-26 08:25N 01°27' E 103°53'0 0.0
2018-Apr-26 07:59N 01°27' E 103°53'0 0.3
2018-Apr-26 07:30N 01°27' E 103°53'0 0.5
2018-Apr-26 06:59N 01°27' E 103°52'0 0.9
2018-Apr-26 06:30N 01°27' E 103°53'3 5.7
2018-Apr-26 05:59N 01°25' E 103°55'3 6.8
2018-Apr-26 05:30N 01°24' E 103°58'3 6.5
2018-Apr-26 04:59N 01°23' E 104°01'3 7.1
2018-Apr-26 04:30N 01°21' E 104°04'1 2.1
2018-Apr-26 03:59N 01°20' E 104°05'3 5.2
2018-Apr-26 03:30N 01°18' E 104°07'0 0.0
2018-Apr-26 02:52N 01°18' E 104°07'0 0.2
2018-Apr-26 02:29N 01°18' E 104°07'0 0.1
2018-Apr-26 00:37N 01°18' E 104°07'0 0.0
2018-Apr-26 00:28N 01°18' E 104°07'0 0.1
2018-Apr-25 23:58N 01°18' E 104°07'0 0.0
2018-Apr-25 23:22N 01°18' E 104°07'0 0.0
2018-Apr-25 22:55N 01°18' E 104°07'0 0.0
2018-Apr-25 22:25N 01°18' E 104°07'0 0.0
2018-Apr-25 21:53N 01°18' E 104°07'0 0.0
2018-Apr-25 21:28N 01°18' E 104°07'0 0.0
2018-Apr-25 20:59N 01°18' E 104°07'0 0.0
2018-Apr-25 20:25N 01°18' E 104°07'0 0.0
2018-Apr-25 19:52N 01°18' E 104°07'0 0.0
2018-Apr-25 19:22N 01°18' E 104°07'0 0.0
2018-Apr-25 18:52N 01°18' E 104°07'0 0.0
2018-Apr-25 18:17N 01°18' E 104°07'0 0.0
2018-Apr-25 17:55N 01°18' E 104°07'0 0.0
2018-Apr-25 17:31N 01°18' E 104°07'0 0.0
2018-Apr-25 16:34N 01°18' E 104°07'0 0.0
2018-Apr-25 16:28N 01°18' E 104°07'0 0.1
2018-Apr-25 15:52N 01°18' E 104°07'0 0.0
2018-Apr-25 15:16N 01°18' E 104°07'0 0.0
2018-Apr-25 14:57N 01°18' E 104°07'0 0.0
2018-Apr-25 14:30N 01°18' E 104°07'0 0.0
2018-Apr-25 13:55N 01°18' E 104°07'0 0.0
2018-Apr-25 13:26N 01°18' E 104°07'0 0.1
2018-Apr-25 12:54N 01°18' E 104°07'0 0.0
2018-Apr-25 12:27N 01°18' E 104°07'0 0.1
2018-Apr-25 11:54N 01°18' E 104°07'0 0.4
2018-Apr-25 11:29N 01°18' E 104°07'0 0.1
2018-Apr-25 10:48N 01°18' E 104°07'0 0.0
2018-Apr-25 10:30N 01°18' E 104°07'0 0.0
2018-Apr-25 09:57N 01°18' E 104°07'0 0.0
2018-Apr-25 09:30N 01°18' E 104°07'0 0.1
2018-Apr-25 08:51N 01°18' E 104°07'0 0.0
2018-Apr-25 08:27N 01°18' E 104°07'0 0.0
2018-Apr-25 07:54N 01°18' E 104°07'0 0.1
2018-Apr-25 06:36N 01°18' E 104°07'0 0.0
2018-Apr-25 06:24N 01°18' E 104°07'0 0.1
2018-Apr-25 05:45N 01°18' E 104°07'0 0.0
2018-Apr-25 05:30N 01°18' E 104°07'0 0.1
2018-Apr-25 04:54N 01°18' E 104°07'0 0.0
2018-Apr-25 04:30N 01°18' E 104°07'0 0.0
2018-Apr-25 03:59N 01°18' E 104°07'0 0.0
2018-Apr-25 03:24N 01°18' E 104°07'0 0.0
2018-Apr-25 02:39N 01°18' E 104°07'0 0.1
2018-Apr-25 02:30N 01°18' E 104°07'0 0.0
2018-Apr-25 01:19N 01°18' E 104°07'0 0.1
2018-Apr-25 00:53N 01°18' E 104°07'0 0.0
2018-Apr-25 00:27N 01°18' E 104°07'0 0.0
2018-Apr-24 23:57N 01°18' E 104°07'0 0.0
2018-Apr-24 23:30N 01°18' E 104°07'0 0.1
2018-Apr-24 21:33N 01°18' E 104°07'0 0.1
2018-Apr-24 21:21N 01°18' E 104°07'0 0.1
2018-Apr-24 20:54N 01°18' E 104°07'0 0.1
2018-Apr-24 20:30N 01°18' E 104°07'0 0.0
2018-Apr-24 19:51N 01°18' E 104°07'0 0.1
2018-Apr-24 19:31N 01°18' E 104°07'0 0.0
2018-Apr-24 18:57N 01°18' E 104°07'0 0.0
2018-Apr-24 18:18N 01°18' E 104°07'0 0.0
2018-Apr-24 17:33N 01°18' E 104°07'0 0.0
2018-Apr-24 17:21N 01°18' E 104°07'0 0.1
2018-Apr-24 16:51N 01°18' E 104°07'0 0.0
2018-Apr-24 15:18N 01°18' E 104°07'0 0.1
2018-Apr-24 14:39N 01°18' E 104°07'0 0.0
2018-Apr-24 14:24N 01°18' E 104°07'0 0.1
2018-Apr-24 13:33N 01°18' E 104°07'0 0.0
2018-Apr-24 13:15N 01°18' E 104°07'0 0.0
2018-Apr-24 12:57N 01°18' E 104°07'0 0.0
2018-Apr-24 12:30N 01°18' E 104°07'0 0.0
2018-Apr-24 11:57N 01°18' E 104°07'0 0.0
2018-Apr-24 11:27N 01°18' E 104°07'0 0.0
2018-Apr-24 10:57N 01°18' E 104°07'0 0.0
2018-Apr-24 10:26N 01°18' E 104°07'0 0.1
2018-Apr-24 09:54N 01°18' E 104°07'0 0.0
2018-Apr-24 09:30N 01°18' E 104°07'0 0.0
2018-Apr-24 08:48N 01°18' E 104°07'0 0.1
2018-Apr-24 08:30N 01°18' E 104°07'0 0.7
2018-Apr-24 07:59N 01°19' E 104°07'0 0.5
2018-Apr-24 07:29N 01°19' E 104°07'1 2.4
2018-Apr-24 06:57N 01°18' E 104°08'2 5.0
2018-Apr-24 06:30N 01°17' E 104°10'4 7.1
2018-Apr-24 05:59N 01°17' E 104°14'3 6.9
2018-Apr-24 05:29N 01°18' E 104°17'3 6.9
2018-Apr-24 04:59N 01°20' E 104°20'4 8.1
2018-Apr-24 04:30N 01°22' E 104°23'4 7.4
2018-Apr-24 03:59N 01°25' E 104°26'  

Dump ship's entire track history